Time;durP1;ratioP1;P1;durP2;ratioP2;P2;SDS_P1;SDS_P2;PMS_P1;PMS_P2;Temp;Humidity;BMP_temperature;BMP_pressure;BME280_temperature;BME280_humidity;BME280_pressure;Samples;Min_cycle;Max_cycle;Signal;HPM_P1;HPM_P2
2022/04/02 00:01:18;;;;;;;5.30;1.40;;;;;;;-0.75;70.07;99325.14;105069;1271;71013;-67
2022/04/02 00:04:08;;;;;;;7.00;1.80;;;;;;;-0.76;70.65;99319.64;104329;1271;1003268;-67
2022/04/02 00:06:57;;;;;;;5.30;1.50;;;;;;;-0.77;70.32;99319.67;104915;1271;59744;-67
2022/04/02 00:09:45;;;;;;;6.20;1.80;;;;;;;-0.77;69.81;99320.05;104905;1273;73617;-67
2022/04/02 00:12:34;;;;;;;7.90;1.60;;;;;;;-0.79;69.82;99319.59;104862;1273;66476;-67
2022/04/02 00:15:23;;;;;;;8.00;1.40;;;;;;;-0.80;70.14;99314.92;104147;1271;1002620;-67
2022/04/02 00:18:11;;;;;;;9.20;1.80;;;;;;;-0.79;69.80;99314.19;105144;1271;59696;-67
2022/04/02 00:20:59;;;;;;;9.00;2.00;;;;;;;-0.80;70.09;99312.99;104874;1272;60606;-70
2022/04/02 00:23:48;;;;;;;7.40;2.00;;;;;;;-0.81;69.96;99315.33;105075;1271;72443;-68
2022/04/02 00:26:39;;;;;;;7.30;1.90;;;;;;;-0.84;69.90;99309.36;105197;1272;67988;-67
2022/04/02 00:29:27;;;;;;;7.20;1.70;;;;;;;-0.87;69.56;99313.83;104877;1272;73106;-68
2022/04/02 00:32:16;;;;;;;6.40;1.60;;;;;;;-0.89;69.70;99315.45;105081;1271;59689;-67
2022/04/02 00:35:05;;;;;;;6.00;1.60;;;;;;;-0.90;69.77;99312.58;105125;1271;59662;-67
2022/04/02 00:37:53;;;;;;;7.60;2.00;;;;;;;-0.91;69.60;99316.42;105124;1271;73969;-67
2022/04/02 00:40:42;;;;;;;6.90;1.30;;;;;;;-0.93;69.79;99315.98;104344;1271;1003008;-67
2022/04/02 00:43:42;;;;;;;8.30;1.40;;;;;;;-0.93;70.21;99316.36;104410;1273;1003586;-67
2022/04/02 00:46:31;;;;;;;6.50;1.60;;;;;;;-0.94;70.58;99308.73;105279;1270;59700;-66
2022/04/02 00:49:20;;;;;;;8.40;1.70;;;;;;;-0.93;69.97;99308.52;105135;1271;60297;-67
2022/04/02 00:52:09;;;;;;;6.00;1.40;;;;;;;-0.94;69.66;99305.92;105006;1273;72304;-67
2022/04/02 00:54:57;;;;;;;5.90;1.30;;;;;;;-0.93;69.49;99309.40;105080;1271;67883;-67
2022/04/02 00:57:45;;;;;;;7.90;1.70;;;;;;;-0.93;69.31;99309.92;103829;1273;1003039;-68
2022/04/02 01:00:34;;;;;;;6.40;1.60;;;;;;;-0.95;69.21;99299.20;104806;1273;59568;-68
2022/04/02 01:03:27;;;;;;;7.40;1.50;;;;;;;-0.95;68.73;99310.52;104540;1273;59816;-68
2022/04/02 01:06:19;;;;;;;6.00;1.50;;;;;;;-0.96;69.37;99307.94;104668;1273;71994;-67
2022/04/02 01:09:10;;;;;;;9.00;1.60;;;;;;;-0.96;69.23;99306.88;104767;1273;66850;-67
2022/04/02 01:11:59;;;;;;;6.30;1.10;;;;;;;-0.97;69.40;99310.26;104672;1273;71113;-67
2022/04/02 01:14:47;;;;;;;6.30;1.70;;;;;;;-0.99;68.88;99305.61;104693;1273;59759;-67
2022/04/02 01:17:48;;;;;;;9.40;1.70;;;;;;;-0.98;68.93;99307.85;104643;1273;59576;-67
2022/04/02 01:20:45;;;;;;;7.40;1.60;;;;;;;-1.01;68.90;99312.68;104729;1273;73531;-67
2022/04/02 01:23:36;;;;;;;8.70;1.60;;;;;;;-1.02;68.87;99307.88;105051;1273;68045;-68
2022/04/02 01:26:31;;;;;;;5.40;1.80;;;;;;;-1.01;68.60;99312.86;104783;1273;72981;-67
2022/04/02 01:29:34;;;;;;;6.80;1.60;;;;;;;-1.01;68.24;99311.81;104854;1273;59672;-66
2022/04/02 01:32:27;;;;;;;7.20;1.50;;;;;;;-0.98;67.65;99317.08;104956;1273;59586;-66
2022/04/02 01:35:27;;;;;;;5.80;1.60;;;;;;;-0.97;68.03;99311.83;104720;1273;73404;-67
2022/04/02 01:38:38;;;;;;;6.20;1.50;;;;;;;-0.96;67.88;99313.68;105124;1273;67823;-67
2022/04/02 01:41:27;;;;;;;9.70;1.80;;;;;;;-0.96;67.64;99318.41;104484;1273;71380;-67
2022/04/02 01:44:16;;;;;;;6.00;1.40;;;;;;;-0.97;67.87;99319.14;104840;1273;59758;-66
2022/04/02 01:47:05;;;;;;;6.30;1.40;;;;;;;-0.99;67.16;99315.19;104781;1273;59726;-67
2022/04/02 01:49:54;;;;;;;7.30;1.70;;;;;;;-0.98;66.78;99312.56;104919;1273;73727;-67
2022/04/02 01:52:42;;;;;;;6.30;1.50;;;;;;;-0.97;66.48;99319.33;104571;1274;67424;-67
2022/04/02 01:55:35;;;;;;;6.70;1.70;;;;;;;-0.95;65.79;99321.14;105023;1271;73314;-68
2022/04/02 01:58:46;;;;;;;9.40;1.50;;;;;;;-0.94;66.01;99320.56;104870;1272;59861;-68
2022/04/02 02:01:40;;;;;;;7.40;1.60;;;;;;;-0.94;66.04;99322.84;104974;1271;60648;-68
2022/04/02 02:04:33;;;;;;;7.50;1.30;;;;;;;-0.98;65.39;99323.16;104809;1271;72426;-66
2022/04/02 02:07:23;;;;;;;6.70;1.40;;;;;;;-0.96;64.58;99316.85;104951;1272;68178;-67
2022/04/02 02:10:12;;;;;;;6.00;1.60;;;;;;;-0.98;64.61;99318.30;104763;1272;72507;-67
2022/04/02 02:13:36;;;;;;;5.10;1.40;;;;;;;-0.99;65.16;99316.23;104901;1271;59851;-67
2022/04/02 02:16:29;;;;;;;4.80;1.30;;;;;;;-0.99;66.12;99318.52;105005;1273;59666;-67
2022/04/02 02:19:17;;;;;;;7.90;2.00;;;;;;;-1.00;66.13;99311.77;104787;1272;73758;-67
2022/04/02 02:22:06;;;;;;;6.10;1.50;;;;;;;-0.99;66.26;99308.61;104642;1272;66533;-67
2022/04/02 02:24:55;;;;;;;6.40;1.70;;;;;;;-0.99;65.70;99312.08;104835;1271;73111;-67
2022/04/02 02:27:48;;;;;;;6.60;1.50;;;;;;;-1.00;65.25;99313.52;104897;1272;59841;-68
2022/04/02 02:30:38;;;;;;;6.70;1.50;;;;;;;-0.99;64.41;99312.95;104855;1271;59757;-67
2022/04/02 02:36:35;;;;;;;5.60;1.10;;;;;;;-0.99;63.69;99307.39;105066;1272;68185;-67
2022/04/02 02:39:28;;;;;;;6.60;1.60;;;;;;;-0.99;63.63;99305.61;104772;1271;73420;-67
2022/04/02 02:42:32;;;;;;;6.00;1.50;;;;;;;-0.97;63.37;99300.83;105095;1271;59772;-67
2022/04/02 02:45:44;;;;;;;4.60;1.40;;;;;;;-0.96;63.40;99302.91;104944;1272;60449;-67
2022/04/02 02:48:34;;;;;;;4.70;1.20;;;;;;;-0.96;62.80;99301.84;104745;1271;73289;-66
2022/04/02 02:51:22;;;;;;;11.60;1.50;;;;;;;-0.96;62.10;99301.15;104076;1271;1003710;-67
2022/04/02 02:54:12;;;;;;;8.10;1.60;;;;;;;-0.97;61.95;99301.73;105154;1269;73132;-66
2022/04/02 02:57:00;;;;;;;7.70;1.60;;;;;;;-0.98;62.09;99301.05;104870;1272;59565;-66
2022/04/02 02:59:49;;;;;;;5.20;1.30;;;;;;;-0.97;62.85;99303.11;104108;1272;1003681;-67
2022/04/02 03:02:39;;;;;;;8.10;1.70;;;;;;;-0.96;63.84;99296.27;104070;1271;1003822;-67
2022/04/02 03:05:29;;;;;;;5.40;1.50;;;;;;;-0.92;63.49;99302.91;104156;1271;1003880;-67
2022/04/02 03:08:20;;;;;;;5.80;1.70;;;;;;;-0.93;63.55;99308.34;105104;1272;71771;-67
2022/04/02 03:11:13;;;;;;;6.50;1.60;;;;;;;-0.95;64.09;99309.65;104255;1273;1002404;-67
2022/04/02 03:14:02;;;;;;;6.10;1.50;;;;;;;-0.97;64.33;99305.73;105067;1271;59555;-67
2022/04/02 03:16:53;;;;;;;5.50;1.50;;;;;;;-0.99;64.20;99312.08;104858;1271;72216;-67
2022/04/02 03:19:42;;;;;;;5.50;1.40;;;;;;;-1.00;63.82;99314.58;104984;1271;67084;-67
2022/04/02 03:22:35;;;;;;;4.80;1.30;;;;;;;-0.99;63.21;99309.45;104952;1271;71602;-67
2022/04/02 03:25:24;;;;;;;7.30;1.80;;;;;;;-0.97;62.85;99312.88;104974;1272;59697;-67
2022/04/02 03:28:14;;;;;;;5.80;1.60;;;;;;;-0.98;62.49;99317.98;104768;1271;59609;-67
2022/04/02 03:31:03;;;;;;;6.20;1.70;;;;;;;-0.97;60.38;99317.92;104026;1271;1003093;-68
2022/04/02 03:33:52;;;;;;;6.80;1.60;;;;;;;-0.96;60.15;99322.55;105212;1271;67739;-67
2022/04/02 03:36:41;;;;;;;6.40;1.40;;;;;;;-0.95;60.43;99318.70;105183;1271;70992;-67
2022/04/02 03:39:29;;;;;;;5.70;1.50;;;;;;;-0.94;60.66;99321.29;104862;1271;59664;-67
2022/04/02 03:42:18;;;;;;;4.60;1.30;;;;;;;-0.95;60.68;99321.50;104117;1273;1003085;-67
2022/04/02 03:45:13;;;;;;;5.90;1.60;;;;;;;-0.95;61.03;99326.86;104781;1271;73554;-68
2022/04/02 03:48:05;;;;;;;8.00;1.30;;;;;;;-0.94;61.35;99329.11;104728;1271;66543;-68
2022/04/02 03:50:58;;;;;;;5.50;1.40;;;;;;;-0.96;61.55;99327.96;104810;1271;71576;-68
2022/04/02 03:53:50;;;;;;;6.10;1.60;;;;;;;-0.98;62.00;99330.14;104956;1274;59809;-68
2022/04/02 03:56:38;;;;;;;4.90;1.20;;;;;;;-0.98;62.56;99333.62;105077;1272;61264;-68
2022/04/02 03:59:33;;;;;;;7.50;1.70;;;;;;;-0.99;63.13;99332.13;104089;1273;1003658;-68
2022/04/02 04:02:21;;;;;;;6.40;1.40;;;;;;;-1.02;63.25;99323.86;103975;1271;1003154;-68
2022/04/02 04:05:11;;;;;;;5.80;1.50;;;;;;;-1.02;63.33;99329.43;104780;1271;73238;-68
2022/04/02 04:08:01;;;;;;;8.60;1.90;;;;;;;-1.02;64.02;99331.35;104846;1271;59666;-68
2022/04/02 04:10:51;;;;;;;7.90;1.60;;;;;;;-1.02;63.92;99332.93;105253;1271;59579;-68
2022/04/02 04:13:42;;;;;;;7.70;2.00;;;;;;;-1.02;63.74;99330.98;104761;1272;73629;-68
2022/04/02 04:16:34;;;;;;;7.40;1.70;;;;;;;-1.00;63.80;99334.23;104037;1271;1003035;-69
2022/04/02 04:19:26;;;;;;;8.10;1.90;;;;;;;-1.00;64.08;99334.23;104784;1271;72890;-68
2022/04/02 04:22:14;;;;;;;6.30;1.80;;;;;;;-1.00;64.62;99339.30;104797;1271;59657;-68
2022/04/02 04:25:03;;;;;;;7.00;1.70;;;;;;;-0.99;64.62;99334.72;104214;1272;1002991;-67
2022/04/02 04:27:52;;;;;;;7.10;1.70;;;;;;;-0.95;63.95;99342.91;104818;1271;1003802;-69
2022/04/02 04:30:49;;;;;;;6.10;1.60;;;;;;;-0.93;64.42;99349.25;105405;1271;68763;-68
2022/04/02 04:33:38;;;;;;;5.10;1.20;;;;;;;-0.89;64.36;99351.90;105171;1271;73072;-67
2022/04/02 04:36:26;;;;;;;5.20;1.40;;;;;;;-0.87;65.01;99355.09;105211;1271;59876;-68
2022/04/02 04:39:14;;;;;;;8.20;1.80;;;;;;;-0.86;65.26;99354.00;104191;1271;1003721;-67
2022/04/02 04:42:04;;;;;;;10.50;1.80;;;;;;;-0.85;65.46;99355.73;105190;1271;73097;-67
2022/04/02 04:44:55;;;;;;;5.20;1.40;;;;;;;-0.84;66.15;99355.34;105162;1271;66933;-67
2022/04/02 04:47:46;;;;;;;7.30;1.40;;;;;;;-0.81;66.45;99356.61;104877;1273;73191;-68
2022/04/02 04:50:37;;;;;;;6.60;1.60;;;;;;;-0.77;66.72;99361.84;104413;1272;1016143;-67
2022/04/02 04:53:29;;;;;;;5.40;1.60;;;;;;;-0.74;67.93;99362.60;104810;1272;60295;-68
2022/04/02 04:56:18;;;;;;;5.90;1.50;;;;;;;-0.72;67.71;99364.73;104828;1271;73043;-68
2022/04/02 04:59:08;;;;;;;5.50;1.40;;;;;;;-0.70;66.92;99362.22;104148;1272;1003864;-68
2022/04/02 05:01:57;;;;;;;7.80;1.60;;;;;;;-0.66;65.59;99367.84;105473;1270;73072;-68
2022/04/02 05:04:46;;;;;;;6.80;1.60;;;;;;;-0.62;64.61;99370.62;104924;1271;59780;-68
2022/04/02 05:07:34;;;;;;;8.00;2.10;;;;;;;-0.57;64.87;99375.63;104951;1271;59547;-67
2022/04/02 05:10:23;;;;;;;6.50;1.60;;;;;;;-0.53;65.37;99374.92;104937;1271;73622;-67
2022/04/02 05:13:14;;;;;;;6.60;1.70;;;;;;;-0.47;65.55;99379.73;105008;1271;68077;-67
2022/04/02 05:16:06;;;;;;;5.30;1.30;;;;;;;-0.41;65.10;99373.52;104882;1272;71678;-67
2022/04/02 05:18:55;;;;;;;7.00;1.80;;;;;;;-0.31;64.27;99378.85;104932;1271;59611;-68
2022/04/02 05:21:43;;;;;;;6.00;1.60;;;;;;;-0.18;63.85;99379.71;104869;1271;59799;-67
2022/04/02 05:24:35;;;;;;;6.90;1.80;;;;;;;-0.10;64.13;99384.92;105010;1271;73239;-68
2022/04/02 05:27:24;;;;;;;5.80;1.50;;;;;;;-0.04;64.39;99385.37;104878;1271;68310;-67
2022/04/02 05:30:13;;;;;;;6.50;1.80;;;;;;;0.00;64.58;99391.08;104186;1271;1003374;-67
2022/04/02 05:33:02;;;;;;;8.00;2.00;;;;;;;0.05;64.35;99391.94;104979;1272;59755;-67
2022/04/02 05:36:12;;;;;;;5.60;1.80;;;;;;;0.14;64.17;99398.13;104010;1271;1002918;-68
2022/04/02 05:39:00;;;;;;;6.00;1.90;;;;;;;0.27;63.62;99402.59;104945;1271;73642;-67
2022/04/02 05:41:51;;;;;;;7.10;1.70;;;;;;;0.42;62.78;99405.60;104848;1272;66683;-70
2022/04/02 05:44:42;;;;;;;8.50;1.80;;;;;;;0.51;61.84;99395.92;105023;1271;71880;-68
2022/04/02 05:47:45;;;;;;;5.90;1.80;;;;;;;0.59;61.32;99398.16;104882;1272;59832;-68
2022/04/02 05:50:33;;;;;;;6.90;1.90;;;;;;;0.66;61.29;99395.05;104852;1271;59897;-68
2022/04/02 05:53:26;;;;;;;9.30;1.90;;;;;;;0.75;61.20;99404.06;104949;1271;72478;-68
2022/04/02 05:56:14;;;;;;;5.80;1.60;;;;;;;0.80;61.18;99410.61;104559;1271;1002922;-68
2022/04/02 05:59:05;;;;;;;6.30;1.90;;;;;;;0.87;60.79;99408.73;104869;1272;71503;-67
2022/04/02 06:01:53;;;;;;;7.70;2.10;;;;;;;1.04;60.22;99409.64;105025;1271;59718;-68
2022/04/02 06:04:42;;;;;;;6.80;1.90;;;;;;;1.18;58.87;99410.36;105158;1271;60205;-67
2022/04/02 06:07:33;;;;;;;6.70;1.90;;;;;;;1.21;57.56;99402.91;105194;1271;73954;-68
2022/04/02 06:10:22;;;;;;;7.70;2.00;;;;;;;1.30;57.77;99413.25;104197;1271;1002947;-69
2022/04/02 06:13:15;;;;;;;6.50;1.90;;;;;;;1.37;57.19;99415.71;104996;1272;71978;-67
2022/04/02 06:16:06;;;;;;;10.00;3.40;;;;;;;1.50;56.55;99422.76;104814;1271;59712;-68
2022/04/02 06:18:55;;;;;;;10.50;3.10;;;;;;;1.68;56.34;99419.73;104936;1271;61138;-68
2022/04/02 06:21:44;;;;;;;8.50;2.30;;;;;;;1.86;56.15;99422.84;104882;1271;74261;-68
2022/04/02 06:24:36;;;;;;;7.60;1.80;;;;;;;1.99;55.80;99420.80;105116;1272;66852;-68
2022/04/02 06:27:24;;;;;;;7.10;1.90;;;;;;;2.18;55.28;99420.13;105011;1272;72560;-68
2022/04/02 06:30:17;;;;;;;7.00;1.90;;;;;;;2.46;53.57;99417.96;105005;1271;59766;-68
2022/04/02 06:33:13;;;;;;;6.50;1.90;;;;;;;3.25;51.03;99420.14;105335;1271;59893;-69
2022/04/02 06:36:02;;;;;;;7.00;1.70;;;;;;;4.15;48.07;99420.64;105085;1271;73016;-69
2022/04/02 06:38:51;;;;;;;7.40;1.90;;;;;;;5.55;44.46;99414.00;105033;1272;67006;-68
2022/04/02 06:41:41;;;;;;;6.20;1.80;;;;;;;6.65;40.74;99413.86;104057;1274;1003752;-68
2022/04/02 06:44:30;;;;;;;6.70;1.70;;;;;;;7.52;38.00;99415.77;104920;1272;59791;-70
2022/04/02 06:47:18;;;;;;;6.90;1.30;;;;;;;7.36;37.01;99411.19;104578;1271;1002919;-69
2022/04/02 06:50:13;;;;;;;6.30;1.60;;;;;;;6.22;39.22;99420.37;104882;1271;71750;-69
2022/04/02 06:53:02;;;;;;;7.10;2.00;;;;;;;6.94;37.80;99423.56;105318;1271;68285;-69
2022/04/02 06:55:52;;;;;;;7.00;1.80;;;;;;;6.90;37.50;99423.54;105228;1271;71510;-69
2022/04/02 06:58:44;;;;;;;6.60;2.00;;;;;;;8.40;35.82;99429.23;104364;1272;1003719;-69
2022/04/02 07:01:32;;;;;;;7.50;2.10;;;;;;;9.80;33.69;99424.30;105067;1271;59955;-69
2022/04/02 07:04:23;;;;;;;7.90;1.60;;;;;;;9.30;32.39;99415.50;105113;1273;73993;-69
2022/04/02 07:07:11;;;;;;;6.10;1.60;;;;;;;9.09;32.55;99425.35;104832;1271;68281;-68
2022/04/02 07:10:00;;;;;;;5.70;1.60;;;;;;;9.12;32.75;99430.77;104957;1271;71724;-67
2022/04/02 07:12:48;;;;;;;7.90;1.60;;;;;;;9.08;32.85;99443.61;104841;1271;59756;-67
2022/04/02 07:15:42;;;;;;;6.20;1.50;;;;;;;9.11;33.13;99443.97;104908;1271;59647;-69
2022/04/02 07:18:35;;;;;;;5.90;1.70;;;;;;;9.71;31.50;99430.52;105109;1271;72539;-67
2022/04/02 07:21:27;;;;;;;5.80;1.70;;;;;;;10.43;30.34;99434.16;105070;1272;66714;-68
2022/04/02 07:24:17;;;;;;;5.60;1.50;;;;;;;10.63;30.10;99437.53;104990;1271;71773;-69
2022/04/02 07:27:07;;;;;;;5.60;1.40;;;;;;;9.62;30.54;99443.11;105302;1271;59716;-67
2022/04/02 07:29:57;;;;;;;6.20;1.70;;;;;;;8.53;32.84;99448.55;104788;1274;59653;-66
2022/04/02 07:32:45;;;;;;;7.70;1.50;;;;;;;7.61;34.65;99448.66;105825;1271;72526;-67
2022/04/02 07:35:53;;;;;;;6.80;1.80;;;;;;;7.13;35.99;99455.89;105013;1271;67140;-65
2022/04/02 07:39:04;;;;;;;6.60;1.90;;;;;;;6.59;36.99;99452.75;105128;1271;71085;-67
2022/04/02 07:42:14;;;;;;;6.80;1.70;;;;;;;6.99;36.64;99454.48;105193;1271;59784;-67
2022/04/02 07:45:16;;;;;;;6.60;1.70;;;;;;;7.02;36.28;99450.35;105168;1271;60795;-68
2022/04/02 07:48:10;;;;;;;5.10;1.30;;;;;;;6.82;35.85;99456.52;105390;1271;72708;-67
2022/04/02 07:51:04;;;;;;;7.00;1.70;;;;;;;6.61;36.74;99461.19;105131;1272;67738;-67
2022/04/02 07:53:59;;;;;;;6.20;1.70;;;;;;;6.52;36.88;99474.74;104993;1271;71756;-68
2022/04/02 07:56:57;;;;;;;5.60;1.60;;;;;;;6.50;36.23;99465.70;105269;1271;59742;-67
2022/04/02 07:59:54;;;;;;;6.00;1.50;;;;;;;6.07;36.97;99476.55;105002;1271;60958;-67
2022/04/02 08:02:48;;;;;;;7.00;1.60;;;;;;;5.74;37.57;99480.34;105169;1272;73716;-67
2022/04/02 08:05:44;;;;;;;7.40;1.60;;;;;;;5.56;38.28;99483.85;104966;1271;68031;-68
2022/04/02 08:08:34;;;;;;;6.60;1.80;;;;;;;5.31;39.04;99488.42;104911;1271;73639;-68
2022/04/02 08:11:23;;;;;;;6.40;1.70;;;;;;;4.95;39.74;99492.31;105027;1271;59701;-68
2022/04/02 08:14:13;;;;;;;6.40;1.80;;;;;;;4.42;40.44;99479.46;105291;1271;59749;-67
2022/04/02 08:17:02;;;;;;;7.80;1.70;;;;;;;4.32;41.26;99494.08;104388;1273;1003565;-67
2022/04/02 08:19:52;;;;;;;6.00;1.60;;;;;;;4.29;41.69;99493.42;105071;1271;67543;-68
2022/04/02 08:22:45;;;;;;;5.70;1.50;;;;;;;4.31;42.04;99505.09;105044;1271;71640;-68
2022/04/02 08:25:38;;;;;;;7.10;1.60;;;;;;;4.14;41.30;99497.98;105010;1272;59685;-67
2022/04/02 08:28:54;;;;;;;6.40;1.70;;;;;;;4.51;40.94;99502.98;105067;1274;61929;-69
2022/04/02 08:32:00;;;;;;;5.70;1.20;;;;;;;4.76;40.53;99501.08;105429;1271;72225;-68
2022/04/02 08:35:12;;;;;;;8.00;2.00;;;;;;;4.90;39.51;99510.60;105024;1271;68185;-68
2022/04/02 08:38:25;;;;;;;5.40;1.50;;;;;;;5.97;37.93;99503.27;105318;1271;72739;-68
2022/04/02 08:41:38;;;;;;;8.20;2.00;;;;;;;6.66;36.84;99510.91;105325;1272;61042;-67
2022/04/02 08:44:53;;;;;;;7.00;1.90;;;;;;;8.77;33.76;99501.45;105004;1271;60578;-68
2022/04/02 08:48:15;;;;;;;7.00;1.70;;;;;;;10.64;29.92;99496.12;105068;1271;72674;-68
2022/04/02 08:51:20;;;;;;;7.60;1.80;;;;;;;11.76;27.31;99493.92;105242;1271;67848;-68
2022/04/02 08:54:36;;;;;;;6.40;1.80;;;;;;;12.52;26.72;99485.63;104889;1271;73006;-68
2022/04/02 08:57:32;;;;;;;5.80;1.40;;;;;;;13.51;25.72;99495.98;105611;1271;59771;-69
2022/04/02 09:00:24;;;;;;;6.30;1.70;;;;;;;13.78;25.32;99490.46;105289;1271;59529;-69
2022/04/02 09:03:52;;;;;;;6.20;1.80;;;;;;;14.60;24.31;99492.94;105057;1271;73278;-69
2022/04/02 09:07:34;;;;;;;5.90;1.70;;;;;;;15.26;23.29;99498.42;105633;1271;617692;-69
2022/04/02 09:10:59;;;;;;;6.90;1.80;;;;;;;15.70;22.52;99488.20;105493;1271;73787;-68
2022/04/02 09:13:59;;;;;;;7.30;2.30;;;;;;;16.09;22.36;99486.11;105175;1270;59639;-68
2022/04/02 09:17:01;;;;;;;7.40;2.00;;;;;;;16.46;21.07;99484.16;104931;1273;60336;-68
2022/04/02 09:20:19;;;;;;;7.80;1.80;;;;;;;16.42;20.73;99479.39;105185;1271;73005;-68
2022/04/02 09:23:41;;;;;;;6.50;1.80;;;;;;;16.18;21.38;99485.63;105543;1271;66850;-69
2022/04/02 09:27:28;;;;;;;7.20;2.00;;;;;;;16.32;22.00;99487.31;104954;1271;72992;-68
2022/04/02 09:31:08;;;;;;;7.00;1.60;;;;;;;17.04;21.08;99487.20;104183;1271;1003089;-69
2022/04/02 09:34:09;;;;;;;6.10;1.90;;;;;;;17.26;20.26;99484.15;105246;1271;60903;-69
2022/04/02 09:37:15;;;;;;;6.00;1.60;;;;;;;17.50;19.14;99484.56;104980;1271;71854;-69
2022/04/02 09:40:06;;;;;;;6.80;1.80;;;;;;;16.99;18.56;99477.92;105378;1271;68640;-69
2022/04/02 09:43:00;;;;;;;7.90;2.20;;;;;;;17.16;18.92;99475.23;104849;1271;72106;-69
2022/04/02 09:46:19;;;;;;;8.10;1.90;;;;;;;17.49;18.93;99473.55;105075;1272;59699;-69
2022/04/02 09:49:35;;;;;;;6.00;1.70;;;;;;;17.85;18.35;99466.19;105653;1271;60529;-66
2022/04/02 09:52:25;;;;;;;6.60;1.80;;;;;;;17.41;18.31;99473.96;105198;1271;71407;-70
2022/04/02 09:55:20;;;;;;;6.60;2.10;;;;;;;17.62;18.65;99475.01;105256;1271;68599;-69
2022/04/02 09:58:33;;;;;;;7.20;1.80;;;;;;;17.31;18.63;99468.02;105344;1271;71786;-68
2022/04/02 10:02:05;;;;;;;6.60;2.00;;;;;;;17.24;18.39;99474.31;105140;1271;59653;-68
2022/04/02 10:05:03;;;;;;;7.00;1.70;;;;;;;17.11;18.60;99472.90;104594;1277;60673;-68
2022/04/02 10:08:02;;;;;;;7.10;2.10;;;;;;;16.42;19.03;99467.02;104556;1278;73538;-69
2022/04/02 10:10:55;;;;;;;7.40;2.50;;;;;;;15.60;20.07;99463.77;104429;1277;68214;-69
2022/04/02 10:13:45;;;;;;;6.80;2.00;;;;;;;15.68;19.99;99468.85;104751;1277;72774;-68
2022/04/02 10:16:35;;;;;;;6.90;2.20;;;;;;;15.82;20.11;99476.84;104483;1278;61480;-68
2022/04/02 10:19:41;;;;;;;6.90;2.30;;;;;;;15.80;20.18;99461.32;104567;1278;60561;-69
2022/04/02 10:22:43;;;;;;;6.20;1.90;;;;;;;16.35;19.76;99470.14;104695;1277;73902;-69
2022/04/02 10:25:42;;;;;;;6.10;1.70;;;;;;;15.44;20.25;99475.50;104657;1277;68243;-68
2022/04/02 10:28:33;;;;;;;7.60;1.70;;;;;;;15.94;20.08;99469.11;104478;1277;71851;-68
2022/04/02 10:31:35;;;;;;;6.10;2.10;;;;;;;16.54;19.71;99468.54;104565;1278;59762;-68
2022/04/02 10:34:39;;;;;;;6.80;1.90;;;;;;;17.11;18.88;99468.50;104557;1277;60427;-68
2022/04/02 10:37:38;;;;;;;7.50;1.90;;;;;;;17.22;18.59;99472.58;104775;1277;72659;-69
2022/04/02 10:40:30;;;;;;;7.10;1.80;;;;;;;16.46;19.00;99471.05;104575;1274;66847;-69
2022/04/02 10:43:30;;;;;;;7.30;2.00;;;;;;;15.13;20.04;99475.80;105071;1271;72553;-68
2022/04/02 10:46:21;;;;;;;7.30;1.70;;;;;;;14.74;20.55;99473.31;104963;1271;59666;-68
2022/04/02 10:49:20;;;;;;;7.60;2.30;;;;;;;14.22;21.30;99479.29;105254;1271;59685;-71
2022/04/02 10:52:13;;;;;;;7.70;2.20;;;;;;;13.99;20.98;99476.98;105204;1271;72366;-69
2022/04/02 10:55:04;;;;;;;7.10;2.00;;;;;;;14.30;21.23;99479.40;105110;1271;68176;-67
2022/04/02 10:57:54;;;;;;;7.20;1.80;;;;;;;14.65;20.68;99479.02;105049;1271;71486;-68
2022/04/02 11:00:46;;;;;;;7.50;2.00;;;;;;;13.97;22.04;99479.88;105160;1271;59720;-70
2022/04/02 11:03:40;;;;;;;7.50;2.00;;;;;;;13.27;22.53;99483.24;104963;1274;61751;-70
2022/04/02 11:06:49;;;;;;;6.90;2.20;;;;;;;12.50;23.11;99482.27;105132;1271;72135;-70
2022/04/02 11:09:39;;;;;;;5.90;1.80;;;;;;;13.04;22.98;99485.48;105215;1271;68215;-68
2022/04/02 11:12:42;;;;;;;8.50;2.00;;;;;;;12.86;22.59;99491.61;105276;1271;73232;-67
2022/04/02 11:15:39;;;;;;;7.20;1.70;;;;;;;12.33;22.07;99499.17;105053;1271;59730;-68
2022/04/02 11:18:27;;;;;;;6.90;1.90;;;;;;;12.40;22.81;99488.31;105198;1271;59681;-68
2022/04/02 11:21:15;;;;;;;6.60;1.80;;;;;;;12.78;23.01;99482.65;104983;1271;71349;-68
2022/04/02 11:24:10;;;;;;;7.30;2.00;;;;;;;13.34;22.43;99477.77;105041;1271;68015;-68
2022/04/02 11:27:01;;;;;;;7.10;1.90;;;;;;;13.34;21.90;99473.27;105015;1271;72957;-68
2022/04/02 11:29:51;;;;;;;6.00;1.90;;;;;;;12.99;22.01;99474.23;104906;1271;59749;-67
2022/04/02 11:32:43;;;;;;;7.20;1.70;;;;;;;12.80;22.07;99479.90;105159;1270;60361;-67
2022/04/02 11:35:40;;;;;;;7.00;1.90;;;;;;;12.43;22.41;99489.27;104746;1271;73398;-68
2022/04/02 11:39:02;;;;;;;7.00;1.90;;;;;;;11.67;23.01;99494.32;105079;1271;68049;-68
2022/04/02 11:41:57;;;;;;;7.60;1.90;;;;;;;11.25;23.18;99478.08;104968;1271;73389;-67
2022/04/02 11:44:53;;;;;;;8.00;2.00;;;;;;;11.47;23.75;99484.40;104938;1271;59651;-67
2022/04/02 11:47:50;;;;;;;8.20;1.90;;;;;;;11.82;23.34;99486.36;105216;1271;59628;-68
2022/04/02 11:50:45;;;;;;;6.90;2.10;;;;;;;12.01;22.92;99485.77;105016;1271;73047;-67
2022/04/02 11:53:37;;;;;;;7.40;1.90;;;;;;;12.01;23.14;99473.86;104890;1271;68121;-67
2022/04/02 11:56:31;;;;;;;7.60;2.40;;;;;;;11.84;23.15;99484.64;105235;1272;71711;-68
2022/04/02 11:59:21;;;;;;;6.00;1.90;;;;;;;10.97;23.45;99479.60;104989;1271;59842;-67
2022/04/02 12:02:09;;;;;;;7.60;2.30;;;;;;;10.62;24.48;99498.83;104961;1271;60326;-69
2022/04/02 12:05:02;;;;;;;6.30;2.00;;;;;;;10.54;25.47;99502.04;104931;1272;71963;-68
2022/04/02 12:07:51;;;;;;;8.50;2.60;;;;;;;10.24;25.78;99507.19;105215;1271;66486;-67
2022/04/02 12:11:03;;;;;;;9.10;2.60;;;;;;;9.76;26.60;99494.94;105299;1271;72560;-68
2022/04/02 12:13:56;;;;;;;7.50;2.40;;;;;;;9.09;27.49;99497.21;105181;1271;59657;-69
2022/04/02 12:16:59;;;;;;;7.60;2.70;;;;;;;8.50;28.30;99506.44;105203;1271;60602;-68
2022/04/02 12:19:55;;;;;;;7.90;2.60;;;;;;;8.13;29.34;99501.10;105002;1271;71507;-68
2022/04/02 12:22:46;;;;;;;7.50;2.70;;;;;;;7.69;30.13;99509.72;104858;1271;68253;-68
2022/04/02 12:25:34;;;;;;;7.50;2.80;;;;;;;7.03;30.10;99498.25;104948;1272;72646;-68
2022/04/02 12:28:24;;;;;;;6.80;2.10;;;;;;;6.24;31.26;99509.20;104954;1271;59787;-69
2022/04/02 12:31:15;;;;;;;7.00;2.20;;;;;;;5.80;32.38;99510.38;105178;1271;59788;-68
2022/04/02 12:34:03;;;;;;;7.00;2.30;;;;;;;5.57;33.63;99506.12;105011;1271;71989;-68
2022/04/02 12:37:01;;;;;;;7.30;2.30;;;;;;;5.40;34.42;99510.91;105128;1271;66926;-66
2022/04/02 12:39:51;;;;;;;6.90;2.20;;;;;;;5.37;35.50;99508.45;105023;1271;71693;-67
2022/04/02 12:42:42;;;;;;;6.80;2.10;;;;;;;5.52;35.22;99512.73;105045;1271;59772;-66
2022/04/02 12:45:35;;;;;;;7.30;1.90;;;;;;;5.14;35.70;99525.02;104881;1271;59703;-67
2022/04/02 12:48:26;;;;;;;6.00;2.10;;;;;;;4.92;35.95;99527.63;104806;1271;73731;-67
2022/04/02 12:51:17;;;;;;;6.20;1.90;;;;;;;4.86;36.61;99522.27;105252;1271;67207;-67
2022/04/02 12:54:08;;;;;;;6.70;2.20;;;;;;;4.84;36.32;99526.91;105050;1271;72675;-68
2022/04/02 12:57:12;;;;;;;6.30;1.80;;;;;;;4.67;36.84;99518.51;105050;1271;59784;-68
2022/04/02 13:00:03;;;;;;;5.80;1.80;;;;;;;4.57;37.63;99520.69;105241;1271;59652;-67
2022/04/02 13:02:58;;;;;;;5.30;1.60;;;;;;;4.59;38.08;99527.78;105356;1271;73726;-68
2022/04/02 13:05:52;;;;;;;5.10;1.60;;;;;;;4.71;37.80;99527.53;105249;1271;68303;-68
2022/04/02 13:08:52;;;;;;;6.60;1.90;;;;;;;4.90;37.73;99520.59;105013;1271;73139;-68
2022/04/02 13:11:53;;;;;;;6.10;1.80;;;;;;;4.98;37.27;99520.94;104876;1271;59698;-67
2022/04/02 13:14:46;;;;;;;6.40;1.60;;;;;;;5.03;37.12;99526.96;105017;1271;59660;-67
2022/04/02 13:20:57;;;;;;;6.30;1.90;;;;;;;4.86;37.27;99536.65;105053;1271;67838;-68
2022/04/02 13:24:09;;;;;;;6.70;1.80;;;;;;;4.54;37.62;99544.95;104853;1272;71330;-67
2022/04/02 13:27:21;;;;;;;7.40;1.90;;;;;;;4.42;37.63;99540.52;105081;1271;59599;-68
2022/04/02 13:30:15;;;;;;;12.30;2.10;;;;;;;4.34;37.93;99539.80;105329;1271;60302;-69
2022/04/02 13:33:50;;;;;;;5.70;1.70;;;;;;;3.99;38.10;99542.73;104757;1271;73580;-68
2022/04/02 13:37:13;;;;;;;6.20;1.90;;;;;;;3.66;39.05;99536.80;104383;1277;68150;-68
2022/04/02 13:40:19;;;;;;;5.70;1.70;;;;;;;3.66;39.23;99552.54;104381;1277;71848;-68
2022/04/02 13:43:09;;;;;;;5.20;1.80;;;;;;;3.68;39.19;99551.56;104549;1277;59720;-68